Flugplatz Pohlheim (UL)

Hier findest Du alle Informationen zum Flugplatz Pohlheim (UL).

Informationen für Piloten zum Flugplatz Pohlheim

Hier findest Du alle relevanten Informationen, die Du als Pilot benötigst, um Pohlheim anzufliegen.

Flugplatz: Pohlheim ICAO-Code: UL Flugplatz
Frequenz Turm: 123.690 Mhz GAFOR Gebiet: 43
Frequenz Ground: 123.690 Mhz Mogas: nein
Platzrunde: S 1500 ft Landegebühr: 0 €
Platzhöhe: - Sunrise: 07:04 Uhr UTC
Pisten: 08/26 - 550 m x 30 m, GRAS Sunset: 16:11 Uhr UTC

Flugwetter am Flugplatz Pohlheim

Die METAR Information stammen aus EDGS (49.73 km entfernt).

METAR Code:
2023/01/14 18:20
EDGS 141820Z AUTO 22018G28KT 190V250 9999 // OVC006/// 07/06 Q1001

Flugschulen am Flugplatz Pohlheim

Am Flugplatz Pohlheim gibt es eine Flugschule.

Benachbarte Flugplätze und Flugschulen

Es gibt 20 weitere Flugplätze in einem Umkreis von 50 km um den Flugplatz Pohlheim.

Jetzt anmelden

Passwort vergessen

Umfrage Archiv

Sendet Ihr ADS-B und/oder FLARM?

Ja
84.7 %
Nein
15.3 %
Stimmen: 274 | Diskussion
Anzeige: Roland Aircraft
Statistik Alle Mitglieder

Aktuell sind 74 Besucher online, davon 2 Mitglieder und 72 Gäste.


Mitglieder online:
bushflyer  Nordex 

Anzeige: ULPower Aero Engines Anzeige: EasyVFR